sensor_id;sensor_type;location;lat;lon;timestamp;pressure;altitude;pressure_sealevel;temperature;humidity
36234;BME280;43467;50.890;5.982;2024-02-23T00:00:10;97641.56;;;7.25;78.02
36234;BME280;43467;50.890;5.982;2024-02-23T00:02:37;97635.47;;;7.24;77.95
36234;BME280;43467;50.890;5.982;2024-02-23T00:05:03;97635.56;;;7.23;77.11
36234;BME280;43467;50.890;5.982;2024-02-23T00:07:29;97651.00;;;7.27;76.99
36234;BME280;43467;50.890;5.982;2024-02-23T00:09:54;97664.78;;;7.07;75.76
36234;BME280;43467;50.890;5.982;2024-02-23T00:12:19;97654.53;;;6.91;74.79
36234;BME280;43467;50.890;5.982;2024-02-23T00:14:45;97664.13;;;6.92;75.06
36234;BME280;43467;50.890;5.982;2024-02-23T00:17:10;97665.56;;;6.96;75.59
36234;BME280;43467;50.890;5.982;2024-02-23T00:19:37;97666.75;;;6.92;76.13
36234;BME280;43467;50.890;5.982;2024-02-23T00:22:02;97666.84;;;6.91;76.55
36234;BME280;43467;50.890;5.982;2024-02-23T00:24:29;97670.28;;;6.68;76.22
36234;BME280;43467;50.890;5.982;2024-02-23T00:26:54;97663.66;;;6.62;76.64
36234;BME280;43467;50.890;5.982;2024-02-23T00:29:20;97682.88;;;6.75;76.64
36234;BME280;43467;50.890;5.982;2024-02-23T00:31:46;97693.06;;;6.80;76.46
36234;BME280;43467;50.890;5.982;2024-02-23T00:34:12;97683.59;;;6.77;76.59
36234;BME280;43467;50.890;5.982;2024-02-23T00:36:42;97675.94;;;6.74;76.39
36234;BME280;43467;50.890;5.982;2024-02-23T00:39:08;97690.25;;;6.70;77.36
36234;BME280;43467;50.890;5.982;2024-02-23T00:41:34;97693.81;;;6.69;77.26
36234;BME280;43467;50.890;5.982;2024-02-23T00:44:00;97702.44;;;6.71;77.15
36234;BME280;43467;50.890;5.982;2024-02-23T00:46:25;97701.28;;;6.75;77.55
36234;BME280;43467;50.890;5.982;2024-02-23T00:48:51;97700.19;;;6.90;77.40
36234;BME280;43467;50.890;5.982;2024-02-23T00:51:16;97691.44;;;6.90;77.04
36234;BME280;43467;50.890;5.982;2024-02-23T00:53:42;97704.53;;;6.79;76.76
36234;BME280;43467;50.890;5.982;2024-02-23T00:56:07;97702.53;;;6.82;76.89
36234;BME280;43467;50.890;5.982;2024-02-23T00:58:33;97719.16;;;6.70;76.45
36234;BME280;43467;50.890;5.982;2024-02-23T01:00:59;97726.19;;;6.82;76.68
36234;BME280;43467;50.890;5.982;2024-02-23T01:03:25;97722.00;;;6.67;76.34
36234;BME280;43467;50.890;5.982;2024-02-23T01:05:50;97729.28;;;6.51;77.25
36234;BME280;43467;50.890;5.982;2024-02-23T01:08:15;97732.44;;;6.43;77.66
36234;BME280;43467;50.890;5.982;2024-02-23T01:10:41;97734.22;;;6.56;77.58
36234;BME280;43467;50.890;5.982;2024-02-23T01:13:06;97747.06;;;6.47;77.63
36234;BME280;43467;50.890;5.982;2024-02-23T01:15:32;97748.22;;;6.43;77.69
36234;BME280;43467;50.890;5.982;2024-02-23T01:17:57;97737.03;;;6.40;78.05
36234;BME280;43467;50.890;5.982;2024-02-23T01:20:23;97748.09;;;6.45;78.26
36234;BME280;43467;50.890;5.982;2024-02-23T01:22:48;97740.75;;;6.50;77.71
36234;BME280;43467;50.890;5.982;2024-02-23T01:25:13;97748.63;;;6.50;77.87
36234;BME280;43467;50.890;5.982;2024-02-23T01:27:41;97762.63;;;6.63;77.45
36234;BME280;43467;50.890;5.982;2024-02-23T01:30:07;97764.63;;;6.60;77.48
36234;BME280;43467;50.890;5.982;2024-02-23T01:32:34;97766.72;;;6.54;76.31
36234;BME280;43467;50.890;5.982;2024-02-23T01:35:02;97762.63;;;6.50;76.92
36234;BME280;43467;50.890;5.982;2024-02-23T01:37:28;97767.13;;;6.61;76.28
36234;BME280;43467;50.890;5.982;2024-02-23T01:39:53;97763.25;;;6.54;76.56
36234;BME280;43467;50.890;5.982;2024-02-23T01:42:19;97781.53;;;6.56;76.49
36234;BME280;43467;50.890;5.982;2024-02-23T01:44:44;97778.47;;;6.49;76.71
36234;BME280;43467;50.890;5.982;2024-02-23T01:47:11;97777.84;;;6.45;76.30
36234;BME280;43467;50.890;5.982;2024-02-23T01:49:36;97768.72;;;6.51;76.53
36234;BME280;43467;50.890;5.982;2024-02-23T01:52:03;97775.97;;;6.60;76.24
36234;BME280;43467;50.890;5.982;2024-02-23T01:54:29;97770.59;;;6.62;76.00
36234;BME280;43467;50.890;5.982;2024-02-23T01:56:55;97768.50;;;6.54;75.94
36234;BME280;43467;50.890;5.982;2024-02-23T01:59:23;97766.19;;;6.49;76.21
36234;BME280;43467;50.890;5.982;2024-02-23T02:01:48;97767.75;;;6.39;75.86
36234;BME280;43467;50.890;5.982;2024-02-23T02:04:14;97750.41;;;6.49;76.01
36234;BME280;43467;50.890;5.982;2024-02-23T02:06:39;97774.91;;;6.50;76.08
36234;BME280;43467;50.890;5.982;2024-02-23T02:09:05;97769.34;;;6.54;75.77
36234;BME280;43467;50.890;5.982;2024-02-23T02:11:31;97762.38;;;6.53;75.60
36234;BME280;43467;50.890;5.982;2024-02-23T02:13:56;97760.69;;;6.52;75.64
36234;BME280;43467;50.890;5.982;2024-02-23T02:16:21;97749.25;;;6.41;75.20
36234;BME280;43467;50.890;5.982;2024-02-23T02:18:47;97752.31;;;6.35;75.41
36234;BME280;43467;50.890;5.982;2024-02-23T02:21:12;97758.81;;;6.42;75.14
36234;BME280;43467;50.890;5.982;2024-02-23T02:23:38;97754.72;;;6.50;75.33
36234;BME280;43467;50.890;5.982;2024-02-23T02:26:03;97761.44;;;6.42;74.86
36234;BME280;43467;50.890;5.982;2024-02-23T02:28:29;97783.88;;;6.60;74.67
36234;BME280;43467;50.890;5.982;2024-02-23T02:30:55;97748.41;;;6.66;74.34
36234;BME280;43467;50.890;5.982;2024-02-23T02:33:22;97765.03;;;6.66;73.89
36234;BME280;43467;50.890;5.982;2024-02-23T02:35:48;97763.88;;;6.58;74.22
36234;BME280;43467;50.890;5.982;2024-02-23T02:38:15;97773.75;;;6.54;73.27
36234;BME280;43467;50.890;5.982;2024-02-23T02:40:40;97758.91;;;6.53;73.99
36234;BME280;43467;50.890;5.982;2024-02-23T02:43:06;97784.38;;;6.65;73.56
36234;BME280;43467;50.890;5.982;2024-02-23T02:45:32;97773.00;;;6.65;73.47
36234;BME280;43467;50.890;5.982;2024-02-23T02:47:59;97761.66;;;6.51;73.51
36234;BME280;43467;50.890;5.982;2024-02-23T02:50:25;97773.03;;;6.52;73.78
36234;BME280;43467;50.890;5.982;2024-02-23T02:52:50;97772.19;;;6.51;73.55
36234;BME280;43467;50.890;5.982;2024-02-23T02:55:16;97783.94;;;6.46;73.51
36234;BME280;43467;50.890;5.982;2024-02-23T02:57:43;97776.91;;;6.46;73.79
36234;BME280;43467;50.890;5.982;2024-02-23T03:00:10;97755.66;;;6.37;73.21
36234;BME280;43467;50.890;5.982;2024-02-23T03:02:35;97778.59;;;6.60;73.42
36234;BME280;43467;50.890;5.982;2024-02-23T03:05:01;97773.75;;;6.54;72.85
36234;BME280;43467;50.890;5.982;2024-02-23T03:07:26;97790.69;;;6.50;73.04
36234;BME280;43467;50.890;5.982;2024-02-23T03:09:52;97783.41;;;6.41;73.20
36234;BME280;43467;50.890;5.982;2024-02-23T03:12:17;97780.06;;;6.39;72.92
36234;BME280;43467;50.890;5.982;2024-02-23T03:14:43;97781.41;;;6.44;73.11
36234;BME280;43467;50.890;5.982;2024-02-23T03:17:09;97798.97;;;6.44;72.50
36234;BME280;43467;50.890;5.982;2024-02-23T03:19:35;97780.69;;;6.42;72.87
36234;BME280;43467;50.890;5.982;2024-02-23T03:22:00;97787.94;;;6.39;73.16
36234;BME280;43467;50.890;5.982;2024-02-23T03:24:26;97777.31;;;6.40;73.29
36234;BME280;43467;50.890;5.982;2024-02-23T03:26:51;97783.00;;;6.34;72.74
36234;BME280;43467;50.890;5.982;2024-02-23T03:29:17;97794.88;;;6.40;72.91
36234;BME280;43467;50.890;5.982;2024-02-23T03:31:42;97797.94;;;6.46;72.83
36234;BME280;43467;50.890;5.982;2024-02-23T03:34:08;97801.28;;;6.48;72.12
36234;BME280;43467;50.890;5.982;2024-02-23T03:36:34;97808.34;;;6.48;72.48
36234;BME280;43467;50.890;5.982;2024-02-23T03:39:00;97804.56;;;6.52;72.69
36234;BME280;43467;50.890;5.982;2024-02-23T03:41:25;97806.34;;;6.51;71.98
36234;BME280;43467;50.890;5.982;2024-02-23T03:43:51;97813.19;;;6.54;72.06
36234;BME280;43467;50.890;5.982;2024-02-23T03:46:16;97800.88;;;6.54;72.17
36234;BME280;43467;50.890;5.982;2024-02-23T03:48:43;97827.69;;;6.47;72.29
36234;BME280;43467;50.890;5.982;2024-02-23T03:51:09;97810.88;;;6.49;72.60
36234;BME280;43467;50.890;5.982;2024-02-23T03:53:34;97805.09;;;6.57;72.74
36234;BME280;43467;50.890;5.982;2024-02-23T03:56:00;97807.22;;;6.52;72.54
36234;BME280;43467;50.890;5.982;2024-02-23T03:58:25;97815.41;;;6.60;73.05
36234;BME280;43467;50.890;5.982;2024-02-23T04:00:51;97808.25;;;6.62;73.06
36234;BME280;43467;50.890;5.982;2024-02-23T04:03:16;97811.31;;;6.56;72.52
36234;BME280;43467;50.890;5.982;2024-02-23T04:05:42;97811.00;;;6.48;72.80
36234;BME280;43467;50.890;5.982;2024-02-23T04:08:07;97815.81;;;6.54;73.05
36234;BME280;43467;50.890;5.982;2024-02-23T04:10:33;97804.44;;;6.53;73.14
36234;BME280;43467;50.890;5.982;2024-02-23T04:12:59;97803.06;;;6.61;73.01
36234;BME280;43467;50.890;5.982;2024-02-23T04:15:25;97814.88;;;6.55;72.95
36234;BME280;43467;50.890;5.982;2024-02-23T04:17:50;97805.84;;;6.59;73.21
36234;BME280;43467;50.890;5.982;2024-02-23T04:20:15;97814.03;;;6.67;72.92
36234;BME280;43467;50.890;5.982;2024-02-23T04:22:41;97814.97;;;6.66;72.73
36234;BME280;43467;50.890;5.982;2024-02-23T04:25:06;97822.97;;;6.65;72.74
36234;BME280;43467;50.890;5.982;2024-02-23T04:27:32;97813.09;;;6.68;73.04
36234;BME280;43467;50.890;5.982;2024-02-23T04:29:58;97811.63;;;6.64;71.99
36234;BME280;43467;50.890;5.982;2024-02-23T04:32:23;97820.03;;;6.69;72.42
36234;BME280;43467;50.890;5.982;2024-02-23T04:34:49;97817.19;;;6.72;72.30
36234;BME280;43467;50.890;5.982;2024-02-23T04:37:14;97825.50;;;6.66;73.00
36234;BME280;43467;50.890;5.982;2024-02-23T04:39:40;97812.97;;;6.70;73.25
36234;BME280;43467;50.890;5.982;2024-02-23T04:42:07;97831.81;;;6.76;73.38
36234;BME280;43467;50.890;5.982;2024-02-23T04:44:34;97813.81;;;6.70;72.39
36234;BME280;43467;50.890;5.982;2024-02-23T04:46:59;97809.00;;;6.64;72.41
36234;BME280;43467;50.890;5.982;2024-02-23T04:49:25;97817.06;;;6.74;72.37
36234;BME280;43467;50.890;5.982;2024-02-23T04:51:50;97809.72;;;6.66;72.04
36234;BME280;43467;50.890;5.982;2024-02-23T04:54:16;97825.19;;;6.83;71.72
36234;BME280;43467;50.890;5.982;2024-02-23T04:56:41;97814.88;;;6.80;71.00
36234;BME280;43467;50.890;5.982;2024-02-23T04:59:06;97800.28;;;6.76;70.48
36234;BME280;43467;50.890;5.982;2024-02-23T05:01:36;97800.59;;;6.72;70.31
36234;BME280;43467;50.890;5.982;2024-02-23T05:04:02;97800.28;;;6.76;70.68
36234;BME280;43467;50.890;5.982;2024-02-23T05:06:29;97802.78;;;6.65;70.38
36234;BME280;43467;50.890;5.982;2024-02-23T05:08:54;97794.38;;;6.60;70.28
36234;BME280;43467;50.890;5.982;2024-02-23T05:11:19;97780.69;;;6.55;70.64
36234;BME280;43467;50.890;5.982;2024-02-23T05:13:45;97772.38;;;6.61;70.65
36234;BME280;43467;50.890;5.982;2024-02-23T05:16:10;97775.84;;;6.62;70.70
36234;BME280;43467;50.890;5.982;2024-02-23T05:18:38;97785.13;;;6.80;70.73
36234;BME280;43467;50.890;5.982;2024-02-23T05:21:03;97780.56;;;6.69;70.53
36234;BME280;43467;50.890;5.982;2024-02-23T05:23:29;97796.56;;;6.79;70.39
36234;BME280;43467;50.890;5.982;2024-02-23T05:25:54;97800.59;;;6.72;70.85
36234;BME280;43467;50.890;5.982;2024-02-23T05:28:20;97799.81;;;6.70;70.85
36234;BME280;43467;50.890;5.982;2024-02-23T05:30:45;97801.22;;;6.75;70.66
36234;BME280;43467;50.890;5.982;2024-02-23T05:33:11;97804.56;;;6.77;70.73
36234;BME280;43467;50.890;5.982;2024-02-23T05:35:37;97810.78;;;6.76;70.74
36234;BME280;43467;50.890;5.982;2024-02-23T05:38:02;97805.09;;;6.70;71.13
36234;BME280;43467;50.890;5.982;2024-02-23T05:40:27;97791.63;;;6.74;71.15
36234;BME280;43467;50.890;5.982;2024-02-23T05:42:53;97784.06;;;6.82;70.65
36234;BME280;43467;50.890;5.982;2024-02-23T05:45:19;97776.91;;;6.72;70.93
36234;BME280;43467;50.890;5.982;2024-02-23T05:47:45;97775.44;;;6.68;70.82
36234;BME280;43467;50.890;5.982;2024-02-23T05:50:11;97795.41;;;6.70;71.03
36234;BME280;43467;50.890;5.982;2024-02-23T05:52:37;97776.69;;;6.62;70.46
36234;BME280;43467;50.890;5.982;2024-02-23T05:55:05;97780.25;;;6.74;70.90
36234;BME280;43467;50.890;5.982;2024-02-23T05:57:31;97769.88;;;6.72;70.43
36234;BME280;43467;50.890;5.982;2024-02-23T05:59:56;97775.00;;;6.74;70.40
36234;BME280;43467;50.890;5.982;2024-02-23T06:02:22;97794.47;;;6.71;70.63
36234;BME280;43467;50.890;5.982;2024-02-23T06:04:48;97773.66;;;6.68;70.29
36234;BME280;43467;50.890;5.982;2024-02-23T06:07:14;97780.88;;;6.65;70.53
36234;BME280;43467;50.890;5.982;2024-02-23T06:09:43;97774.28;;;6.72;70.20
36234;BME280;43467;50.890;5.982;2024-02-23T06:12:09;97766.19;;;6.75;69.98
36234;BME280;43467;50.890;5.982;2024-02-23T06:14:35;97765.25;;;6.76;70.33
36234;BME280;43467;50.890;5.982;2024-02-23T06:17:01;97769.44;;;6.78;70.62
36234;BME280;43467;50.890;5.982;2024-02-23T06:19:26;97769.22;;;6.81;70.27
36234;BME280;43467;50.890;5.982;2024-02-23T06:21:51;97762.59;;;6.76;70.32
36234;BME280;43467;50.890;5.982;2024-02-23T06:24:17;97756.72;;;6.72;70.28
36234;BME280;43467;50.890;5.982;2024-02-23T06:26:43;97755.56;;;6.76;70.36
36234;BME280;43467;50.890;5.982;2024-02-23T06:29:08;97759.75;;;6.66;70.15
36234;BME280;43467;50.890;5.982;2024-02-23T06:31:37;97758.91;;;6.53;70.41
36234;BME280;43467;50.890;5.982;2024-02-23T06:34:03;97731.06;;;6.50;70.55
36234;BME280;43467;50.890;5.982;2024-02-23T06:36:28;97752.31;;;6.60;70.58
36234;BME280;43467;50.890;5.982;2024-02-23T06:38:54;97751.16;;;6.64;70.33
36234;BME280;43467;50.890;5.982;2024-02-23T06:41:19;97746.53;;;6.55;70.61
36234;BME280;43467;50.890;5.982;2024-02-23T06:43:45;97749.88;;;6.57;70.75
36234;BME280;43467;50.890;5.982;2024-02-23T06:46:11;97750.31;;;6.64;70.41
36234;BME280;43467;50.890;5.982;2024-02-23T06:48:37;97745.59;;;6.56;70.47
36234;BME280;43467;50.890;5.982;2024-02-23T06:51:07;97734.53;;;6.51;70.32
36234;BME280;43467;50.890;5.982;2024-02-23T06:53:35;97742.13;;;6.43;70.76
36234;BME280;43467;50.890;5.982;2024-02-23T06:56:01;97740.50;;;6.40;70.89
36234;BME280;43467;50.890;5.982;2024-02-23T06:58:27;97744.75;;;6.43;71.13
36234;BME280;43467;50.890;5.982;2024-02-23T07:00:53;97750.63;;;6.46;70.99
36234;BME280;43467;50.890;5.982;2024-02-23T07:03:18;97753.47;;;6.43;71.72
36234;BME280;43467;50.890;5.982;2024-02-23T07:05:45;97739.34;;;6.32;71.84
36234;BME280;43467;50.890;5.982;2024-02-23T07:08:11;97747.56;;;6.40;71.92
36234;BME280;43467;50.890;5.982;2024-02-23T07:10:37;97742.41;;;6.38;71.96
36234;BME280;43467;50.890;5.982;2024-02-23T07:13:02;97751.16;;;6.39;72.26
36234;BME280;43467;50.890;5.982;2024-02-23T07:15:28;97755.66;;;6.37;72.71
36234;BME280;43467;50.890;5.982;2024-02-23T07:17:54;97756.81;;;6.33;72.71
36234;BME280;43467;50.890;5.982;2024-02-23T07:20:20;97756.41;;;6.26;73.31
36234;BME280;43467;50.890;5.982;2024-02-23T07:22:46;97739.88;;;6.24;73.39
36234;BME280;43467;50.890;5.982;2024-02-23T07:25:16;97767.84;;;6.38;73.27
36234;BME280;43467;50.890;5.982;2024-02-23T07:27:41;97765.75;;;6.43;72.92
36234;BME280;43467;50.890;5.982;2024-02-23T07:30:07;97754.94;;;6.47;72.96
36234;BME280;43467;50.890;5.982;2024-02-23T07:32:33;97762.91;;;6.46;73.11
36234;BME280;43467;50.890;5.982;2024-02-23T07:34:58;97768.72;;;6.51;73.20
36234;BME280;43467;50.890;5.982;2024-02-23T07:37:26;97760.50;;;6.43;73.06
36234;BME280;43467;50.890;5.982;2024-02-23T07:39:52;97757.56;;;6.47;73.39
36234;BME280;43467;50.890;5.982;2024-02-23T07:42:17;97769.88;;;6.47;73.91
36234;BME280;43467;50.890;5.982;2024-02-23T07:44:44;97761.75;;;6.50;73.91
36234;BME280;43467;50.890;5.982;2024-02-23T07:47:10;97755.13;;;6.57;73.58
36234;BME280;43467;50.890;5.982;2024-02-23T07:49:36;97757.34;;;6.63;72.89
36234;BME280;43467;50.890;5.982;2024-02-23T07:52:02;97758.72;;;6.56;73.14
36234;BME280;43467;50.890;5.982;2024-02-23T07:54:28;97769.25;;;6.56;72.86
36234;BME280;43467;50.890;5.982;2024-02-23T07:56:53;97780.06;;;6.64;73.28
36234;BME280;43467;50.890;5.982;2024-02-23T07:59:18;97770.38;;;6.65;73.23
36234;BME280;43467;50.890;5.982;2024-02-23T08:01:44;97773.84;;;6.52;73.07
36234;BME280;43467;50.890;5.982;2024-02-23T08:04:09;97760.91;;;6.49;73.44
36234;BME280;43467;50.890;5.982;2024-02-23T08:06:34;97763.00;;;6.70;73.16
36234;BME280;43467;50.890;5.982;2024-02-23T08:09:00;97774.69;;;6.66;72.43
36234;BME280;43467;50.890;5.982;2024-02-23T08:11:25;97765.78;;;6.68;73.08
36234;BME280;43467;50.890;5.982;2024-02-23T08:13:51;97787.63;;;6.69;72.75
36234;BME280;43467;50.890;5.982;2024-02-23T08:16:16;97786.16;;;6.77;72.87
36234;BME280;43467;50.890;5.982;2024-02-23T08:18:42;97788.91;;;6.88;72.30
36234;BME280;43467;50.890;5.982;2024-02-23T08:21:10;97780.78;;;6.91;72.23
36234;BME280;43467;50.890;5.982;2024-02-23T08:23:36;97785.41;;;6.88;71.52
36234;BME280;43467;50.890;5.982;2024-02-23T08:26:01;97766.47;;;6.83;71.44
36234;BME280;43467;50.890;5.982;2024-02-23T08:28:27;97790.88;;;6.97;71.74
36234;BME280;43467;50.890;5.982;2024-02-23T08:30:52;97779.78;;;7.05;71.28
36234;BME280;43467;50.890;5.982;2024-02-23T08:33:18;97801.50;;;6.96;71.44
36234;BME280;43467;50.890;5.982;2024-02-23T08:35:44;97770.34;;;7.03;71.36
36234;BME280;43467;50.890;5.982;2024-02-23T08:38:10;97771.72;;;7.08;71.09
36234;BME280;43467;50.890;5.982;2024-02-23T08:40:35;97772.44;;;7.10;71.15
36234;BME280;43467;50.890;5.982;2024-02-23T08:43:01;97762.03;;;7.09;70.71
36234;BME280;43467;50.890;5.982;2024-02-23T08:45:26;97771.28;;;7.01;71.24
36234;BME280;43467;50.890;5.982;2024-02-23T08:47:51;97754.25;;;6.94;70.67
36234;BME280;43467;50.890;5.982;2024-02-23T08:50:17;97778.44;;;7.12;70.98
36234;BME280;43467;50.890;5.982;2024-02-23T08:52:43;97771.88;;;7.18;70.26
36234;BME280;43467;50.890;5.982;2024-02-23T08:55:09;97779.78;;;7.18;70.44
36234;BME280;43467;50.890;5.982;2024-02-23T08:57:36;97774.31;;;7.21;70.31
36234;BME280;43467;50.890;5.982;2024-02-23T09:00:02;97770.06;;;7.31;69.72
36234;BME280;43467;50.890;5.982;2024-02-23T09:02:30;97766.91;;;7.26;69.48
36234;BME280;43467;50.890;5.982;2024-02-23T09:04:56;97765.13;;;7.26;69.54
36234;BME280;43467;50.890;5.982;2024-02-23T09:07:21;97773.94;;;7.38;69.64
36234;BME280;43467;50.890;5.982;2024-02-23T09:09:47;97766.78;;;7.40;68.94
36234;BME280;43467;50.890;5.982;2024-02-23T09:12:14;97774.44;;;7.43;68.96
36234;BME280;43467;50.890;5.982;2024-02-23T09:14:41;97774.44;;;7.43;68.77
36234;BME280;43467;50.890;5.982;2024-02-23T09:17:08;97775.69;;;7.50;69.14
36234;BME280;43467;50.890;5.982;2024-02-23T09:19:35;97772.06;;;7.64;68.78
36234;BME280;43467;50.890;5.982;2024-02-23T09:22:00;97774.72;;;7.51;67.83
36234;BME280;43467;50.890;5.982;2024-02-23T09:24:27;97792.22;;;7.52;67.46
36234;BME280;43467;50.890;5.982;2024-02-23T09:26:52;97769.88;;;7.58;67.13
36234;BME280;43467;50.890;5.982;2024-02-23T09:29:18;97772.44;;;7.70;67.21
36234;BME280;43467;50.890;5.982;2024-02-23T09:31:43;97765.47;;;7.82;66.90
36234;BME280;43467;50.890;5.982;2024-02-23T09:34:09;97794.63;;;7.79;67.16
36234;BME280;43467;50.890;5.982;2024-02-23T09:36:34;97761.50;;;7.87;67.46
36234;BME280;43467;50.890;5.982;2024-02-23T09:39:00;97773.63;;;7.90;67.27
36234;BME280;43467;50.890;5.982;2024-02-23T09:41:27;97781.19;;;7.94;66.95
36234;BME280;43467;50.890;5.982;2024-02-23T09:44:00;97781.31;;;7.93;66.90
36234;BME280;43467;50.890;5.982;2024-02-23T09:46:26;97787.19;;;7.97;66.98
36234;BME280;43467;50.890;5.982;2024-02-23T09:48:52;97801.63;;;7.91;66.83
36234;BME280;43467;50.890;5.982;2024-02-23T09:51:18;97776.13;;;7.91;66.38
36234;BME280;43467;50.890;5.982;2024-02-23T09:53:46;97786.66;;;7.91;66.70
36234;BME280;43467;50.890;5.982;2024-02-23T09:56:14;97797.72;;;7.97;66.65
36234;BME280;43467;50.890;5.982;2024-02-23T09:58:43;97780.19;;;7.84;66.24
36234;BME280;43467;50.890;5.982;2024-02-23T10:01:10;97793.63;;;7.92;66.25
36234;BME280;43467;50.890;5.982;2024-02-23T10:03:37;97795.56;;;7.90;66.98
36234;BME280;43467;50.890;5.982;2024-02-23T10:06:03;97774.91;;;7.84;65.80
36234;BME280;43467;50.890;5.982;2024-02-23T10:08:30;97786.66;;;7.91;66.05
36234;BME280;43467;50.890;5.982;2024-02-23T10:10:55;97806.81;;;7.92;66.37
36234;BME280;43467;50.890;5.982;2024-02-23T10:13:24;97802.38;;;7.93;66.46
36234;BME280;43467;50.890;5.982;2024-02-23T10:15:50;97792.41;;;7.85;66.60
36234;BME280;43467;50.890;5.982;2024-02-23T10:18:16;97806.69;;;7.94;66.29
36234;BME280;43467;50.890;5.982;2024-02-23T10:20:42;97809.28;;;8.07;66.30
36234;BME280;43467;50.890;5.982;2024-02-23T10:23:08;97790.84;;;8.07;66.35
36234;BME280;43467;50.890;5.982;2024-02-23T10:25:34;97811.69;;;8.10;66.67
36234;BME280;43467;50.890;5.982;2024-02-23T10:28:04;97807.34;;;8.09;66.40
36234;BME280;43467;50.890;5.982;2024-02-23T10:30:30;97812.91;;;8.17;66.34
36234;BME280;43467;50.890;5.982;2024-02-23T10:32:57;97824.38;;;8.16;66.66
36234;BME280;43467;50.890;5.982;2024-02-23T10:35:23;97819.72;;;8.19;66.48
36234;BME280;43467;50.890;5.982;2024-02-23T10:37:49;97830.38;;;8.30;66.65
36234;BME280;43467;50.890;5.982;2024-02-23T10:40:16;97841.75;;;8.31;66.20
36234;BME280;43467;50.890;5.982;2024-02-23T10:42:47;97843.00;;;8.25;65.73
36234;BME280;43467;50.890;5.982;2024-02-23T10:45:20;97831.84;;;8.22;65.87
36234;BME280;43467;50.890;5.982;2024-02-23T10:47:50;97849.66;;;8.31;65.85
36234;BME280;43467;50.890;5.982;2024-02-23T10:50:17;97857.03;;;8.26;66.18
36234;BME280;43467;50.890;5.982;2024-02-23T10:52:44;97852.47;;;8.28;66.09
36234;BME280;43467;50.890;5.982;2024-02-23T10:55:10;97848.91;;;8.29;65.87
36234;BME280;43467;50.890;5.982;2024-02-23T10:57:36;97863.72;;;8.43;65.70
36234;BME280;43467;50.890;5.982;2024-02-23T11:00:06;97846.31;;;8.40;65.58
36234;BME280;43467;50.890;5.982;2024-02-23T11:02:36;97860.22;;;8.31;65.07
36234;BME280;43467;50.890;5.982;2024-02-23T11:05:04;97866.28;;;8.31;65.28
36234;BME280;43467;50.890;5.982;2024-02-23T11:07:30;97870.63;;;8.32;64.67
36234;BME280;43467;50.890;5.982;2024-02-23T11:09:58;97870.78;;;8.42;65.20
36234;BME280;43467;50.890;5.982;2024-02-23T11:12:25;97868.25;;;8.40;65.21
36234;BME280;43467;50.890;5.982;2024-02-23T11:14:51;97858.31;;;8.44;65.13
36234;BME280;43467;50.890;5.982;2024-02-23T11:17:22;97854.06;;;8.54;65.13
36234;BME280;43467;50.890;5.982;2024-02-23T11:19:49;97856.44;;;8.57;64.75
36234;BME280;43467;50.890;5.982;2024-02-23T11:22:26;97861.84;;;8.56;64.27
36234;BME280;43467;50.890;5.982;2024-02-23T11:24:52;97858.59;;;8.52;64.68
36234;BME280;43467;50.890;5.982;2024-02-23T11:27:18;97861.94;;;8.43;64.41
36234;BME280;43467;50.890;5.982;2024-02-23T11:29:46;97871.16;;;8.49;64.30
36234;BME280;43467;50.890;5.982;2024-02-23T11:32:16;97872.34;;;8.45;64.21
36234;BME280;43467;50.890;5.982;2024-02-23T11:34:53;97868.66;;;8.47;64.69
36234;BME280;43467;50.890;5.982;2024-02-23T11:37:19;97865.88;;;8.49;65.48
36234;BME280;43467;50.890;5.982;2024-02-23T11:39:45;97870.56;;;8.45;64.71
36234;BME280;43467;50.890;5.982;2024-02-23T11:42:12;97858.94;;;8.48;64.87
36234;BME280;43467;50.890;5.982;2024-02-23T11:44:37;97868.31;;;8.52;65.50
36234;BME280;43467;50.890;5.982;2024-02-23T11:47:03;97854.06;;;8.65;65.14
36234;BME280;43467;50.890;5.982;2024-02-23T11:49:29;97873.28;;;8.78;65.24
36234;BME280;43467;50.890;5.982;2024-02-23T11:51:54;97867.28;;;8.76;64.29
36234;BME280;43467;50.890;5.982;2024-02-23T11:54:20;97860.94;;;8.68;64.83
36234;BME280;43467;50.890;5.982;2024-02-23T11:56:47;97870.84;;;8.64;64.90
36234;BME280;43467;50.890;5.982;2024-02-23T11:59:15;97873.28;;;8.67;64.85
36234;BME280;43467;50.890;5.982;2024-02-23T12:01:41;97869.63;;;8.57;65.15
36234;BME280;43467;50.890;5.982;2024-02-23T12:04:07;97876.13;;;8.64;65.50
36234;BME280;43467;50.890;5.982;2024-02-23T12:06:33;97864.75;;;8.64;65.50
36234;BME280;43467;50.890;5.982;2024-02-23T12:08:59;97860.28;;;8.64;65.50
36234;BME280;43467;50.890;5.982;2024-02-23T12:11:25;97857.91;;;8.61;64.54
36234;BME280;43467;50.890;5.982;2024-02-23T12:13:51;97865.31;;;8.56;64.34
36234;BME280;43467;50.890;5.982;2024-02-23T12:16:17;97867.59;;;8.61;64.68
36234;BME280;43467;50.890;5.982;2024-02-23T12:18:42;97875.06;;;8.67;63.82
36234;BME280;43467;50.890;5.982;2024-02-23T12:21:08;97854.56;;;8.70;63.00
36234;BME280;43467;50.890;5.982;2024-02-23T12:23:44;97862.75;;;8.78;63.15
36234;BME280;43467;50.890;5.982;2024-02-23T12:26:12;97858.56;;;8.76;62.91
36234;BME280;43467;50.890;5.982;2024-02-23T12:28:38;97848.25;;;8.95;62.97
36234;BME280;43467;50.890;5.982;2024-02-23T12:31:04;97851.00;;;8.94;62.46
36234;BME280;43467;50.890;5.982;2024-02-23T12:33:34;97860.97;;;8.90;61.86
36234;BME280;43467;50.890;5.982;2024-02-23T12:36:00;97848.72;;;8.89;61.91
36234;BME280;43467;50.890;5.982;2024-02-23T12:38:26;97848.72;;;8.89;61.97
36234;BME280;43467;50.890;5.982;2024-02-23T12:40:52;97846.94;;;8.90;62.25
36234;BME280;43467;50.890;5.982;2024-02-23T12:43:19;97862.16;;;8.97;62.13
36234;BME280;43467;50.890;5.982;2024-02-23T12:45:47;97851.25;;;9.02;62.64
36234;BME280;43467;50.890;5.982;2024-02-23T12:48:16;97861.09;;;9.00;62.65
36234;BME280;43467;50.890;5.982;2024-02-23T12:50:42;97856.63;;;8.89;62.18
36234;BME280;43467;50.890;5.982;2024-02-23T12:53:11;97849.56;;;8.90;62.19
36234;BME280;43467;50.890;5.982;2024-02-23T12:55:54;97852.19;;;8.90;62.70
36234;BME280;43467;50.890;5.982;2024-02-23T12:58:20;97849.56;;;8.90;62.36
36234;BME280;43467;50.890;5.982;2024-02-23T13:00:45;97841.41;;;8.93;62.58
36234;BME280;43467;50.890;5.982;2024-02-23T13:03:11;97846.13;;;9.00;63.09